Terminal Aerodrome Forecast
Issued by NWS Green Bay, WI

Home | Current Version | Previous Version | Graphics & Text | Print | Product List | Glossary On
Versions: 1 2 3 4 5 6 7 8 9 10 11 12 13 14 15 16 17 18 19 20 21 22 23 24 25 26 27 28 29 30 31 32 33 34 35 36 37 38 39 40 41 42 43 44 45 46 47 48 49 50
000
FTUS43 KGRB 201744
TAFGRB
TAF
KGRB 201744Z 2018/2118 05009KT 1 1/2SM -RA BR OVC002
     FM202000 05007KT 2SM BR OVC003
     FM210200 08005KT 1/2SM FG OVC002
     FM211000 09006KT 1/2SM -DZ FG OVC002
     FM211600 10006KT 1 1/2SM -DZ BR OVC004=

USA.gov is the U.S. government's official web portal to all federal, state and local government web resources and services.